Terminal Aerodrome Forecast
Issued by NWS

Home | Current Version | Previous Version | Text Only | Print | Product List | Glossary On
Versions: 1 2 3 4 5 6 7 8 9 10 11 12 13 14 15 16 17 18
000
FTUS44 KHGX 270210 AAA
TAFCXO
TAF AMD
KCXO 270210Z 2702/2724 14010KT P6SM BKN023 OVC040
     FM270700 14008KT P6SM VCSH FEW015 BKN021
     FM271100 15004KT 5SM BR BKN015
     FM271500 17009KT P6SM VCSH BKN025
      TEMPO 2720/2724 BKN035=

USA.gov is the U.S. government's official web portal to all federal, state and local government web resources and services.